createdAt,value
2019-02-27T20:16:30.171Z,20.53
2019-02-27T20:18:58.822Z,29.20
2019-02-27T20:21:27.482Z,16.10
2019-02-27T20:24:00.975Z,15.10
2019-02-27T20:26:26.613Z,11.40
2019-02-27T20:28:55.597Z,10.47
2019-02-27T20:31:24.263Z,4.90
2019-02-27T20:33:52.945Z,11.83
2019-02-27T20:36:21.680Z,6.70
2019-02-27T20:38:50.749Z,9.20
2019-02-27T20:41:19.999Z,9.07
2019-02-27T20:43:48.661Z,10.40
2019-02-27T20:46:17.303Z,29.63
2019-02-27T20:48:45.954Z,31.70
2019-02-27T20:51:15.219Z,30.20
2019-02-27T20:53:43.975Z,39.93
2019-02-27T20:56:12.670Z,17.63
2019-02-27T20:58:41.333Z,11.13
2019-02-27T21:01:11.082Z,8.10
2019-02-27T21:03:40.258Z,7.13
2019-02-27T21:06:08.901Z,11.60
2019-02-27T21:08:37.552Z,7.70
2019-02-27T21:11:06.315Z,9.30
2019-02-27T21:13:34.981Z,2.83
2019-02-27T21:16:04.366Z,9.90
2019-02-27T21:18:34.042Z,21.13
2019-02-27T21:21:02.797Z,18.83
2019-02-27T21:23:32.131Z,15.10
2019-02-27T21:26:01.711Z,12.40
2019-02-27T21:28:30.452Z,15.37
2019-02-27T21:30:59.174Z,8.57
2019-02-27T21:33:27.886Z,10.80
2019-02-27T21:35:56.586Z,9.63
2019-02-27T21:38:25.578Z,22.00
2019-02-27T21:40:54.326Z,23.80
2019-02-27T21:43:25.728Z,12.17
2019-02-27T21:45:54.337Z,12.73
2019-02-27T21:48:23.573Z,14.27
2019-02-27T21:50:53.492Z,12.90
2019-02-27T21:53:22.837Z,23.03
2019-02-27T21:55:51.652Z,12.98
2019-02-27T21:58:20.848Z,25.05
2019-02-27T22:00:49.674Z,11.93
2019-02-27T22:03:18.323Z,11.23
2019-02-27T22:05:52.581Z,9.35
2019-02-27T22:08:17.911Z,12.85
2019-02-27T22:10:53.752Z,18.02
2019-02-27T22:13:29.477Z,25.32
2019-02-27T22:15:59.270Z,35.05
2019-02-27T22:18:28.201Z,45.05
2019-02-27T22:21:00.406Z,35.60
2019-02-27T22:23:29.585Z,30.52
2019-02-27T22:25:58.828Z,35.90
2019-02-27T22:28:28.779Z,25.02
2019-02-27T22:31:06.155Z,15.40
2019-02-27T22:33:33.019Z,22.95
2019-02-27T22:36:05.215Z,12.30
2019-02-27T22:38:34.584Z,12.82
2019-02-27T22:41:03.407Z,19.42
2019-02-27T22:43:35.128Z,16.82
2019-02-27T22:46:08.775Z,15.70
2019-02-27T22:48:37.361Z,14.78
2019-02-27T22:51:05.829Z,13.88
2019-02-27T22:53:39.563Z,16.15
2019-02-27T22:56:08.669Z,13.60
2019-02-27T22:58:37.725Z,13.75
2019-02-27T23:01:25.382Z,16.27
2019-02-27T23:04:08.908Z,10.35
2019-02-27T23:06:47.267Z,17.32
2019-02-27T23:09:18.058Z,17.17
2019-02-27T23:11:47.135Z,19.42
2019-02-27T23:14:18.943Z,16.20
2019-02-27T23:16:47.123Z,17.50
2019-02-27T23:19:16.016Z,23.55
2019-02-27T23:21:44.850Z,20.77
2019-02-27T23:24:13.351Z,18.87
2019-02-27T23:26:41.714Z,27.42
2019-02-27T23:29:10.547Z,24.95
2019-02-27T23:31:39.770Z,16.57
2019-02-27T23:34:08.926Z,19.50
2019-02-27T23:36:37.803Z,23.73
2019-02-27T23:39:08.743Z,21.85
2019-02-27T23:41:38.251Z,23.27
2019-02-27T23:44:07.036Z,26.05
2019-02-27T23:46:35.494Z,15.78
2019-02-27T23:49:06.586Z,19.77
2019-02-27T23:51:35.145Z,17.92
2019-02-27T23:54:04.017Z,18.35
2019-02-27T23:56:32.980Z,18.00
2019-02-27T23:59:04.891Z,12.68
